Time;durP1;ratioP1;P1;durP2;ratioP2;P2;SDS_P1;SDS_P2;PMS_P1;PMS_P2;Temp;Humidity;BMP_temperature;BMP_pressure;BME280_temperature;BME280_humidity;BME280_pressure;Samples;Min_cycle;Max_cycle;Signal;HPM_P1;HPM_P2
2022/05/16 00:01:05;;;;;;;0.80;0.50;;;16.70;99.90;;;;;;5013979;28;20266;-72
2022/05/16 00:03:31;;;;;;;0.80;0.50;;;16.70;99.90;;;;;;5015094;28;20567;-71
2022/05/16 00:05:57;;;;;;;0.90;0.60;;;16.70;99.90;;;;;;5014054;28;20423;-72
2022/05/16 00:08:22;;;;;;;1.07;0.97;;;16.70;99.90;;;;;;5014135;28;20302;-72
2022/05/16 00:10:48;;;;;;;0.80;0.50;;;16.70;99.90;;;;;;5013839;28;20204;-72
2022/05/16 00:13:13;;;;;;;0.87;0.53;;;16.60;99.90;;;;;;5014894;28;20178;-70
2022/05/16 00:15:40;;;;;;;0.80;0.50;;;16.70;99.90;;;;;;5014039;28;20179;-71
2022/05/16 00:18:06;;;;;;;1.20;0.90;;;16.60;99.90;;;;;;5015538;28;20184;-71
2022/05/16 00:20:33;;;;;;;1.87;1.10;;;16.60;99.90;;;;;;5014753;28;20967;-72
2022/05/16 00:22:58;;;;;;;1.10;0.83;;;16.70;99.90;;;;;;5014844;28;20419;-72
2022/05/16 00:25:24;;;;;;;1.33;0.97;;;16.60;99.90;;;;;;5013897;28;20794;-72
2022/05/16 00:27:50;;;;;;;0.90;0.70;;;16.60;99.90;;;;;;5014035;28;20203;-71
2022/05/16 00:30:18;;;;;;;0.80;0.60;;;16.60;99.90;;;;;;5014383;28;20250;-72
2022/05/16 00:32:47;;;;;;;0.80;0.53;;;16.60;99.90;;;;;;5015272;28;20168;-72
2022/05/16 00:35:13;;;;;;;0.87;0.57;;;16.60;99.90;;;;;;5015801;28;20498;-72
2022/05/16 00:37:39;;;;;;;0.80;0.50;;;16.50;99.90;;;;;;5015175;28;20411;-72
2022/05/16 00:40:06;;;;;;;0.80;0.60;;;16.50;99.90;;;;;;5014693;28;20426;-71
2022/05/16 00:42:32;;;;;;;0.80;0.60;;;16.50;99.90;;;;;;5015217;28;20255;-71
2022/05/16 00:44:57;;;;;;;0.80;0.50;;;16.50;99.90;;;;;;5014836;28;20450;-71
2022/05/16 00:47:23;;;;;;;1.00;0.70;;;16.50;99.90;;;;;;5013210;28;20184;-72
2022/05/16 00:49:51;;;;;;;0.80;0.60;;;16.50;99.90;;;;;;5014570;28;20199;-72
2022/05/16 00:52:21;;;;;;;0.90;0.60;;;16.50;99.90;;;;;;5013685;28;20199;-72
2022/05/16 00:54:59;;;;;;;0.80;0.60;;;16.40;99.90;;;;;;5013860;28;20447;-72
2022/05/16 00:57:35;;;;;;;0.80;0.60;;;16.50;99.90;;;;;;5015305;28;20435;-72
2022/05/16 01:00:13;;;;;;;0.87;0.70;;;16.50;99.90;;;;;;5013388;28;20449;-73
2022/05/16 01:05:28;;;;;;;0.93;0.67;;;16.40;99.90;;;;;;5014922;28;20825;-72
2022/05/16 01:07:58;;;;;;;1.30;0.60;;;16.40;99.90;;;;;;5013564;28;20411;-72
2022/05/16 01:10:23;;;;;;;0.90;0.70;;;16.50;99.90;;;;;;5013868;28;20618;-72
2022/05/16 01:12:53;;;;;;;1.63;0.70;;;16.50;99.90;;;;;;5014041;28;20435;-72
2022/05/16 01:15:36;;;;;;;0.80;0.50;;;16.50;99.90;;;;;;5014324;28;20260;-72
2022/05/16 01:18:04;;;;;;;0.80;0.57;;;16.50;99.90;;;;;;5013419;28;20446;-72
2022/05/16 01:20:56;;;;;;;1.57;0.80;;;16.50;99.90;;;;;;5012751;28;20437;-72
2022/05/16 01:23:24;;;;;;;0.90;0.60;;;16.50;99.90;;;;;;5012884;28;20457;-72
2022/05/16 01:25:52;;;;;;;1.57;0.77;;;16.50;99.90;;;;;;5014243;28;20422;-72
2022/05/16 01:28:20;;;;;;;0.80;0.50;;;16.50;99.90;;;;;;5017385;28;20435;-72
2022/05/16 01:30:47;;;;;;;1.40;0.70;;;16.50;99.90;;;;;;5015792;28;20502;-72
2022/05/16 01:33:22;;;;;;;0.80;0.50;;;16.50;99.90;;;;;;5017291;28;20501;-72
2022/05/16 01:35:47;;;;;;;0.90;0.70;;;16.50;99.90;;;;;;5017750;28;20403;-72
2022/05/16 01:38:19;;;;;;;0.90;0.70;;;16.50;99.90;;;;;;5018059;28;20499;-70
2022/05/16 01:40:46;;;;;;;1.20;1.00;;;16.40;99.90;;;;;;5018227;28;20180;-72
2022/05/16 01:43:13;;;;;;;1.73;0.97;;;16.40;99.90;;;;;;5017415;28;20780;-72
2022/05/16 01:45:41;;;;;;;0.80;0.60;;;16.50;99.90;;;;;;5017398;28;20494;-73
2022/05/16 01:48:08;;;;;;;1.10;0.67;;;16.40;99.90;;;;;;5015751;28;20426;-72
2022/05/16 01:50:33;;;;;;;1.20;1.10;;;16.40;99.90;;;;;;5015606;28;20473;-71
2022/05/16 01:52:59;;;;;;;1.10;0.60;;;16.40;99.90;;;;;;5018285;28;20486;-72
2022/05/16 01:55:25;;;;;;;0.90;0.70;;;16.40;99.90;;;;;;5019119;28;20173;-73
2022/05/16 01:57:50;;;;;;;0.83;0.67;;;16.40;99.90;;;;;;5017014;28;20188;-72
2022/05/16 02:00:17;;;;;;;1.37;0.80;;;16.40;99.90;;;;;;5018563;28;20275;-71
2022/05/16 02:02:44;;;;;;;0.90;0.70;;;16.40;99.90;;;;;;5017396;28;20252;-72
2022/05/16 02:05:13;;;;;;;0.80;0.60;;;16.40;99.90;;;;;;5017054;28;20434;-71
2022/05/16 02:07:39;;;;;;;0.80;0.67;;;16.40;99.90;;;;;;5016859;28;20418;-72
2022/05/16 02:10:06;;;;;;;1.20;1.10;;;16.40;99.90;;;;;;5016711;28;20880;-72
2022/05/16 02:12:32;;;;;;;1.00;0.80;;;16.40;99.90;;;;;;5017157;28;20210;-72
2022/05/16 02:14:58;;;;;;;0.80;0.60;;;16.30;99.90;;;;;;5017463;28;20454;-71
2022/05/16 02:17:23;;;;;;;0.80;0.57;;;16.30;99.90;;;;;;5015279;28;20435;-72
2022/05/16 02:19:49;;;;;;;1.07;0.60;;;16.30;99.90;;;;;;5016054;28;20246;-72
2022/05/16 02:24:59;;;;;;;0.80;0.63;;;16.30;99.90;;;;;;5016869;28;20186;-72
2022/05/16 02:27:25;;;;;;;1.03;0.77;;;16.30;99.90;;;;;;5016033;28;20490;-72
2022/05/16 02:29:50;;;;;;;0.90;0.70;;;16.20;99.90;;;;;;5017772;28;20944;-70
2022/05/16 02:32:16;;;;;;;0.80;0.60;;;16.20;99.90;;;;;;5017339;28;20172;-72
2022/05/16 02:34:44;;;;;;;0.90;0.60;;;16.20;99.90;;;;;;5017706;28;20169;-72
2022/05/16 02:37:11;;;;;;;0.90;0.60;;;16.10;99.90;;;;;;5017928;28;20196;-72
2022/05/16 02:39:36;;;;;;;1.37;0.60;;;16.00;99.90;;;;;;5016949;28;21137;-72
2022/05/16 02:42:02;;;;;;;0.80;0.50;;;16.00;99.90;;;;;;5018094;28;20435;-72
2022/05/16 02:44:28;;;;;;;1.27;0.90;;;16.00;99.90;;;;;;5018634;28;20418;-72
2022/05/16 02:46:53;;;;;;;0.80;0.50;;;15.90;99.90;;;;;;5016792;28;20423;-72
2022/05/16 02:49:21;;;;;;;1.00;0.77;;;15.90;99.90;;;;;;5017127;28;20196;-71
2022/05/16 02:51:47;;;;;;;1.63;1.07;;;15.90;99.90;;;;;;5019804;28;20196;-72
2022/05/16 02:54:12;;;;;;;0.80;0.57;;;15.80;99.90;;;;;;5018714;28;20897;-72
2022/05/16 02:56:38;;;;;;;0.90;0.80;;;15.80;99.90;;;;;;5018356;28;20177;-72
2022/05/16 02:59:04;;;;;;;0.80;0.60;;;15.80;99.90;;;;;;5017621;28;20196;-71
2022/05/16 03:01:29;;;;;;;0.83;0.70;;;15.70;99.90;;;;;;5018941;28;20176;-71
2022/05/16 03:03:55;;;;;;;0.90;0.70;;;15.70;99.90;;;;;;5018471;28;20411;-72
2022/05/16 03:06:21;;;;;;;0.80;0.60;;;15.70;99.90;;;;;;5018206;28;20176;-72
2022/05/16 03:08:46;;;;;;;0.87;0.70;;;15.70;99.90;;;;;;5017321;28;20200;-72
2022/05/16 03:11:12;;;;;;;0.90;0.70;;;15.60;99.90;;;;;;5017432;28;20208;-72
2022/05/16 03:13:37;;;;;;;0.80;0.57;;;15.60;99.90;;;;;;5017054;28;20176;-71
2022/05/16 03:16:04;;;;;;;0.80;0.50;;;15.60;99.90;;;;;;5018066;28;20169;-72
2022/05/16 03:18:31;;;;;;;0.80;0.50;;;15.50;99.90;;;;;;5018054;28;20208;-72
2022/05/16 03:20:57;;;;;;;0.80;0.60;;;15.50;99.90;;;;;;5017962;28;20524;-72
2022/05/16 03:23:23;;;;;;;0.80;0.60;;;15.50;99.90;;;;;;5018400;28;20994;-72
2022/05/16 03:25:49;;;;;;;0.90;0.70;;;15.50;99.90;;;;;;5016889;28;20450;-72
2022/05/16 03:28:15;;;;;;;1.00;0.80;;;15.50;99.90;;;;;;5017595;28;20941;-72
2022/05/16 03:30:42;;;;;;;1.03;0.77;;;15.50;99.90;;;;;;5017281;28;20645;-72
2022/05/16 03:33:08;;;;;;;2.63;1.03;;;15.50;99.90;;;;;;5017204;28;20168;-72
2022/05/16 03:35:34;;;;;;;1.00;0.80;;;15.40;99.90;;;;;;5017576;28;20480;-72
2022/05/16 03:38:00;;;;;;;1.33;0.83;;;15.40;99.90;;;;;;5017304;28;20442;-72
2022/05/16 03:40:45;;;;;;;1.07;0.80;;;15.40;99.90;;;;;;5018457;28;20455;-71
2022/05/16 03:43:11;;;;;;;0.97;0.67;;;15.40;99.90;;;;;;5016701;28;20172;-70
2022/05/16 03:45:37;;;;;;;1.87;0.77;;;15.50;99.90;;;;;;5016901;28;20407;-72
2022/05/16 03:48:05;;;;;;;1.00;0.90;;;15.50;99.90;;;;;;5016428;28;20415;-73
2022/05/16 03:50:32;;;;;;;0.80;0.60;;;15.50;99.90;;;;;;5016154;28;20403;-73
2022/05/16 03:52:59;;;;;;;1.73;0.80;;;15.50;99.90;;;;;;5015423;28;20442;-73
2022/05/16 03:55:27;;;;;;;0.80;0.60;;;15.50;99.90;;;;;;5016383;28;20418;-72
2022/05/16 03:57:52;;;;;;;0.80;0.60;;;15.60;99.90;;;;;;5015726;28;20493;-72
2022/05/16 04:00:19;;;;;;;0.90;0.80;;;15.60;99.90;;;;;;5014912;28;20502;-73
2022/05/16 04:02:45;;;;;;;1.00;0.90;;;15.60;99.90;;;;;;5017435;28;20183;-73
2022/05/16 04:05:15;;;;;;;1.27;0.80;;;15.60;99.90;;;;;;5018029;28;20414;-72
2022/05/16 04:07:41;;;;;;;0.90;0.77;;;15.60;99.90;;;;;;5016606;28;20461;-73
2022/05/16 04:10:08;;;;;;;1.00;0.73;;;15.70;99.90;;;;;;5016153;28;20433;-73
2022/05/16 04:12:33;;;;;;;2.47;1.33;;;15.70;99.90;;;;;;5016485;28;20841;-72
2022/05/16 04:14:59;;;;;;;0.90;0.80;;;15.80;99.90;;;;;;5016920;28;20407;-71
2022/05/16 04:17:25;;;;;;;1.17;1.07;;;15.80;99.90;;;;;;5015175;28;20184;-73
2022/05/16 04:19:50;;;;;;;2.13;0.70;;;15.90;99.90;;;;;;5016093;28;20198;-73
2022/05/16 04:22:16;;;;;;;1.10;1.00;;;16.00;99.90;;;;;;5016080;28;20171;-73
2022/05/16 04:24:41;;;;;;;1.10;0.90;;;16.00;99.90;;;;;;5015268;28;20156;-74
2022/05/16 04:27:07;;;;;;;1.20;0.97;;;16.20;99.90;;;;;;5015393;28;20165;-73
2022/05/16 04:29:32;;;;;;;1.50;1.40;;;16.30;99.90;;;;;;5015219;28;20224;-73
2022/05/16 04:31:58;;;;;;;1.30;1.00;;;16.40;99.90;;;;;;5016110;28;20634;-74
2022/05/16 04:34:24;;;;;;;1.50;1.23;;;16.50;99.90;;;;;;5015448;28;20634;-73
2022/05/16 04:36:49;;;;;;;1.33;0.70;;;16.60;99.90;;;;;;5014112;28;20191;-73
2022/05/16 04:39:15;;;;;;;1.00;0.83;;;16.70;99.90;;;;;;5015476;28;20211;-73
2022/05/16 04:44:24;;;;;;;1.73;0.90;;;17.00;99.90;;;;;;5019110;28;20175;-73
2022/05/16 04:46:50;;;;;;;0.93;0.83;;;17.10;99.90;;;;;;5018217;28;20411;-73
2022/05/16 04:49:16;;;;;;;1.00;0.70;;;17.20;99.90;;;;;;5017062;28;20571;-72
2022/05/16 04:51:42;;;;;;;1.10;1.00;;;17.30;99.90;;;;;;5016773;28;20187;-73
2022/05/16 04:54:08;;;;;;;2.30;2.10;;;17.40;99.90;;;;;;5018861;28;20582;-73
2022/05/16 04:56:34;;;;;;;0.80;0.60;;;17.50;99.90;;;;;;5018972;28;20446;-73
2022/05/16 04:59:00;;;;;;;1.50;1.23;;;17.60;99.90;;;;;;5020202;28;20422;-73
2022/05/16 05:01:26;;;;;;;1.00;0.83;;;17.70;99.90;;;;;;5022790;28;20458;-72
2022/05/16 05:03:51;;;;;;;1.10;0.80;;;17.80;99.90;;;;;;5023416;28;20411;-73
2022/05/16 05:06:20;;;;;;;0.80;0.60;;;18.00;99.90;;;;;;5024072;28;20262;-73
2022/05/16 05:08:46;;;;;;;1.20;0.90;;;18.00;99.90;;;;;;5023414;28;20673;-73
2022/05/16 05:16:40;;;;;;;1.00;0.90;;;18.20;99.90;;;;;;5023532;28;20418;-73
2022/05/16 05:19:06;;;;;;;1.33;1.00;;;18.20;99.90;;;;;;5023564;28;20447;-72
2022/05/16 05:21:31;;;;;;;0.80;0.60;;;18.20;99.90;;;;;;5022243;28;20204;-73
2022/05/16 05:23:57;;;;;;;1.73;1.63;;;18.20;99.90;;;;;;5023509;28;20196;-72
2022/05/16 05:26:22;;;;;;;2.30;1.20;;;18.30;99.90;;;;;;5023078;28;20169;-73
2022/05/16 05:28:48;;;;;;;1.20;0.90;;;18.30;99.90;;;;;;5022899;28;20223;-73
2022/05/16 05:31:16;;;;;;;2.07;1.60;;;18.40;99.90;;;;;;5023577;28;20207;-73
2022/05/16 05:33:42;;;;;;;1.30;0.97;;;18.50;99.90;;;;;;5022141;28;20183;-72
2022/05/16 05:36:09;;;;;;;2.83;2.33;;;18.50;99.90;;;;;;5022846;28;20443;-73
2022/05/16 05:38:36;;;;;;;1.20;1.07;;;18.60;99.90;;;;;;5022776;28;20435;-73
2022/05/16 05:41:07;;;;;;;1.00;0.90;;;18.60;99.90;;;;;;5022442;28;20455;-75
2022/05/16 05:43:32;;;;;;;0.93;0.83;;;18.70;99.90;;;;;;5023025;28;20407;-74
2022/05/16 05:45:58;;;;;;;1.53;1.00;;;18.70;99.90;;;;;;5022476;28;20433;-73
2022/05/16 05:48:24;;;;;;;1.20;0.90;;;18.70;99.90;;;;;;5022033;28;20649;-73
2022/05/16 05:50:50;;;;;;;1.03;0.80;;;18.80;99.90;;;;;;5021603;28;20572;-71
2022/05/16 05:53:15;;;;;;;1.00;0.80;;;18.80;99.90;;;;;;5014575;28;20414;-72
2022/05/16 05:55:41;;;;;;;1.77;1.20;;;18.90;99.90;;;;;;5014558;28;20169;-72
2022/05/16 05:58:07;;;;;;;1.13;1.03;;;18.90;99.90;;;;;;5014490;28;20165;-72
2022/05/16 06:00:32;;;;;;;1.93;1.07;;;18.90;99.90;;;;;;5014075;28;20200;-71
2022/05/16 06:03:00;;;;;;;1.40;1.30;;;19.00;99.90;;;;;;5013214;28;20255;-72
2022/05/16 06:05:26;;;;;;;2.83;1.90;;;19.00;99.90;;;;;;5014391;28;20539;-72
2022/05/16 06:07:52;;;;;;;0.97;0.87;;;19.10;99.90;;;;;;5013066;28;20442;-71
2022/05/16 06:10:18;;;;;;;1.47;0.93;;;19.10;99.90;;;;;;5012805;28;20870;-72
2022/05/16 06:12:44;;;;;;;1.23;1.13;;;19.10;99.90;;;;;;5013456;28;20407;-71
2022/05/16 06:15:10;;;;;;;3.53;1.20;;;19.10;99.90;;;;;;5014250;28;20251;-72
2022/05/16 06:17:36;;;;;;;1.10;0.93;;;19.20;99.90;;;;;;5014043;28;20222;-72
2022/05/16 06:20:07;;;;;;;1.90;0.93;;;19.20;99.90;;;;;;5013908;28;20784;-71
2022/05/16 06:22:38;;;;;;;0.80;0.60;;;19.20;99.90;;;;;;5013690;28;20160;-72
2022/05/16 06:25:39;;;;;;;1.43;1.00;;;19.20;99.90;;;;;;5013892;28;20462;-71
2022/05/16 06:28:11;;;;;;;1.30;0.93;;;19.20;99.90;;;;;;5012643;28;20410;-71
2022/05/16 06:30:39;;;;;;;1.03;0.80;;;19.20;99.90;;;;;;5013789;28;20470;-72
2022/05/16 06:33:05;;;;;;;1.47;1.10;;;19.30;99.90;;;;;;5012576;28;20443;-71
2022/05/16 06:35:32;;;;;;;1.30;0.97;;;19.30;99.90;;;;;;5012441;28;20445;-71
2022/05/16 06:38:04;;;;;;;3.90;1.00;;;19.30;99.90;;;;;;5013798;28;20203;-71
2022/05/16 06:40:30;;;;;;;1.30;1.10;;;19.30;99.90;;;;;;5013455;28;20447;-72
2022/05/16 06:42:55;;;;;;;1.10;1.00;;;19.40;99.90;;;;;;5013671;28;20422;-72
2022/05/16 06:45:21;;;;;;;1.17;0.93;;;19.40;99.90;;;;;;5013498;28;20164;-72
2022/05/16 06:47:46;;;;;;;0.90;0.80;;;19.40;99.90;;;;;;5012207;28;20535;-72
2022/05/16 06:50:12;;;;;;;1.10;1.00;;;19.40;99.90;;;;;;5013317;28;20657;-72
2022/05/16 06:52:38;;;;;;;1.43;1.00;;;19.50;99.90;;;;;;5013168;28;20301;-71
2022/05/16 06:55:04;;;;;;;1.77;1.67;;;19.50;99.90;;;;;;5013425;28;20191;-71
2022/05/16 06:57:30;;;;;;;1.20;0.90;;;19.60;99.90;;;;;;5013250;28;20505;-72
2022/05/16 06:59:56;;;;;;;0.97;0.70;;;19.60;99.90;;;;;;5013268;28;20180;-72
2022/05/16 07:02:21;;;;;;;1.10;0.90;;;19.70;99.90;;;;;;5013229;28;20404;-72
2022/05/16 07:04:47;;;;;;;1.63;1.33;;;19.80;99.90;;;;;;5013228;28;20171;-72
2022/05/16 07:07:12;;;;;;;1.63;1.10;;;19.80;99.90;;;;;;5013111;28;20168;-72
2022/05/16 07:09:41;;;;;;;2.47;1.37;;;19.90;99.90;;;;;;5012986;28;20207;-71
2022/05/16 07:12:09;;;;;;;1.30;1.20;;;20.00;99.90;;;;;;5011571;28;20247;-72
2022/05/16 07:14:37;;;;;;;3.53;1.50;;;20.20;99.90;;;;;;5013018;28;20407;-72
2022/05/16 07:17:03;;;;;;;1.63;1.00;;;20.30;99.90;;;;;;5013000;28;20426;-71
2022/05/16 07:19:31;;;;;;;1.40;1.13;;;20.40;99.90;;;;;;5013104;28;20434;-72
2022/05/16 07:22:00;;;;;;;2.90;1.50;;;20.50;99.90;;;;;;5012713;28;20979;-71
2022/05/16 07:24:26;;;;;;;0.90;0.70;;;20.60;99.90;;;;;;5012164;28;20404;-72
2022/05/16 07:29:36;;;;;;;1.20;1.10;;;20.80;99.90;;;;;;5012892;28;20219;-72
2022/05/16 07:32:02;;;;;;;0.90;0.80;;;20.80;99.90;;;;;;5011272;28;20411;-71
2022/05/16 07:34:27;;;;;;;0.90;0.80;;;20.80;99.90;;;;;;5012839;28;20164;-71
2022/05/16 07:36:53;;;;;;;1.30;1.20;;;20.90;99.90;;;;;;5012726;28;20419;-72
2022/05/16 07:39:18;;;;;;;1.67;0.90;;;20.90;99.90;;;;;;5012601;28;20215;-72
2022/05/16 07:41:44;;;;;;;1.17;1.07;;;20.90;99.90;;;;;;5012437;28;20234;-71
2022/05/16 07:44:10;;;;;;;1.03;0.87;;;20.90;99.90;;;;;;5012471;28;20168;-72
2022/05/16 07:46:35;;;;;;;1.53;0.80;;;21.00;99.90;;;;;;5012581;28;20553;-71
2022/05/16 07:49:01;;;;;;;1.40;0.90;;;21.00;99.90;;;;;;5012420;28;20180;-72
2022/05/16 07:51:26;;;;;;;1.23;0.90;;;21.00;99.90;;;;;;5010763;28;20260;-71
2022/05/16 07:53:52;;;;;;;1.70;0.90;;;21.00;99.90;;;;;;5012502;28;20282;-71
2022/05/16 07:56:18;;;;;;;1.53;0.93;;;21.00;99.90;;;;;;5012507;28;20223;-71
2022/05/16 07:58:43;;;;;;;1.20;1.10;;;21.00;99.90;;;;;;5012402;28;20194;-71
2022/05/16 08:01:09;;;;;;;6.50;1.50;;;21.00;99.90;;;;;;5010717;28;20203;-71
2022/05/16 08:03:34;;;;;;;0.90;0.80;;;21.10;99.90;;;;;;5011086;28;20168;-71
2022/05/16 08:06:00;;;;;;;1.23;1.10;;;21.00;99.90;;;;;;5011218;28;20168;-71
2022/05/16 08:11:11;;;;;;;1.03;0.73;;;21.10;99.90;;;;;;5012066;28;20179;-72
2022/05/16 08:13:37;;;;;;;1.23;1.13;;;21.10;99.90;;;;;;5011996;28;20446;-71
2022/05/16 08:16:03;;;;;;;3.87;1.40;;;21.20;99.90;;;;;;5012284;28;20411;-71
2022/05/16 08:18:29;;;;;;;1.40;1.30;;;21.30;99.90;;;;;;5012041;28;20496;-71
2022/05/16 08:20:55;;;;;;;2.00;1.00;;;21.40;99.90;;;;;;5011777;28;20250;-72
2022/05/16 08:23:25;;;;;;;1.73;1.30;;;21.50;99.90;;;;;;5012066;28;20255;-71
2022/05/16 08:25:53;;;;;;;1.00;0.87;;;21.60;99.90;;;;;;5012160;28;20411;-72
2022/05/16 08:28:19;;;;;;;1.33;1.10;;;21.80;99.90;;;;;;5012028;28;20427;-71
2022/05/16 08:30:45;;;;;;;1.37;1.00;;;22.00;99.90;;;;;;5011878;28;20406;-71
2022/05/16 08:33:11;;;;;;;1.67;0.97;;;22.20;99.90;;;;;;5010823;28;20415;-72
2022/05/16 08:35:36;;;;;;;1.40;1.30;;;22.40;99.90;;;;;;5013900;28;20622;-72
2022/05/16 08:40:55;;;;;;;1.50;1.40;;;22.90;99.90;;;;;;5015988;28;20249;-72
2022/05/16 08:43:42;;;;;;;1.40;1.30;;;23.30;99.90;;;;;;5014597;28;20956;-72
2022/05/16 08:46:25;;;;;;;1.87;1.13;;;23.70;99.90;;;;;;5015868;28;20434;-73
2022/05/16 08:48:58;;;;;;;1.10;1.00;;;25.10;99.90;;;;;;5015792;28;20427;-72
2022/05/16 08:51:28;;;;;;;1.73;1.10;;;27.80;99.90;;;;;;5015576;28;20478;-73
2022/05/16 08:54:11;;;;;;;1.13;1.00;;;30.60;99.90;;;;;;5015926;28;20399;-73
2022/05/16 08:56:41;;;;;;;4.00;1.53;;;32.50;94.70;;;;;;5014452;28;20469;-73
2022/05/16 08:59:14;;;;;;;1.77;1.30;;;34.70;88.20;;;;;;5015648;28;20423;-74
2022/05/16 09:01:49;;;;;;;2.70;1.10;;;37.20;72.70;;;;;;5015370;28;20956;-72
2022/05/16 09:04:23;;;;;;;1.47;1.37;;;39.30;59.40;;;;;;5015494;28;20410;-72
2022/05/16 09:06:52;;;;;;;1.60;1.50;;;41.30;52.10;;;;;;5015647;28;20411;-72
2022/05/16 09:09:26;;;;;;;1.70;1.60;;;43.00;46.00;;;;;;5015474;28;20462;-73
2022/05/16 09:12:12;;;;;;;2.37;1.37;;;44.80;42.50;;;;;;5015239;28;20904;-73
2022/05/16 09:15:16;;;;;;;1.70;1.60;;;46.40;39.90;;;;;;5015343;28;20424;-73
2022/05/16 09:18:00;;;;;;;1.50;1.40;;;47.60;36.50;;;;;;4954545;28;20444;-73
2022/05/16 09:20:48;;;;;;;1.30;1.20;;;49.00;33.20;;;;;;4938564;29;20433;-73
2022/05/16 09:23:51;;;;;;;1.50;1.40;;;50.10;32.80;;;;;;4999316;28;20385;-73
2022/05/16 09:26:31;;;;;;;1.70;1.60;;;51.40;31.40;;;;;;4993060;28;21011;-73
2022/05/16 09:29:12;;;;;;;1.60;1.50;;;52.50;30.50;;;;;;5015110;28;20484;-73
2022/05/16 09:31:42;;;;;;;1.83;1.70;;;53.50;29.70;;;;;;5014778;28;20433;-73
2022/05/16 09:34:09;;;;;;;1.80;1.70;;;54.30;28.30;;;;;;5013729;28;20924;-73
2022/05/16 09:36:40;;;;;;;2.07;1.97;;;54.90;27.40;;;;;;5014944;28;20380;-73
2022/05/16 09:39:09;;;;;;;1.90;1.80;;;55.70;27.30;;;;;;5013516;28;20478;-73
2022/05/16 09:42:03;;;;;;;2.10;2.00;;;56.30;26.60;;;;;;5013286;28;20415;-73
2022/05/16 09:44:45;;;;;;;2.00;1.90;;;56.90;26.10;;;;;;5013792;28;20971;-73
2022/05/16 09:47:22;;;;;;;2.20;2.10;;;57.30;24.90;;;;;;5013657;28;20816;-73
2022/05/16 09:50:03;;;;;;;2.00;1.90;;;57.60;24.70;;;;;;5014782;28;21080;-73
2022/05/16 09:52:46;;;;;;;2.10;2.00;;;58.00;24.60;;;;;;5014400;28;20425;-74
2022/05/16 09:55:33;;;;;;;2.63;2.53;;;58.60;24.70;;;;;;5014703;28;20966;-74
2022/05/16 09:58:02;;;;;;;2.30;2.20;;;59.30;24.80;;;;;;5014557;28;20398;-74
2022/05/16 10:00:42;;;;;;;2.63;2.53;;;59.80;24.60;;;;;;5014557;28;20433;-74
2022/05/16 10:03:20;;;;;;;2.50;2.40;;;60.40;24.30;;;;;;5014432;28;20391;-74
2022/05/16 10:05:47;;;;;;;2.60;2.50;;;60.70;24.00;;;;;;5014336;28;20434;-74
2022/05/16 10:08:22;;;;;;;3.23;3.13;;;61.10;23.70;;;;;;5013014;28;20402;-74
2022/05/16 10:10:48;;;;;;;3.00;2.90;;;61.40;23.70;;;;;;5014069;28;20508;-74
2022/05/16 10:13:16;;;;;;;3.53;3.33;;;61.80;23.70;;;;;;5013945;28;20406;-74
2022/05/16 10:15:43;;;;;;;3.80;3.70;;;62.10;23.50;;;;;;5012258;28;20187;-74
2022/05/16 10:18:14;;;;;;;3.43;3.33;;;62.50;23.40;;;;;;5014116;28;20518;-74
2022/05/16 10:20:46;;;;;;;3.83;3.73;;;62.80;23.80;;;;;;5014060;28;20489;-74
2022/05/16 10:23:29;;;;;;;3.30;3.20;;;63.10;23.20;;;;;;5014005;28;20395;-74
2022/05/16 10:25:59;;;;;;;3.70;3.60;;;63.40;23.10;;;;;;5014204;28;20876;-74
2022/05/16 10:28:29;;;;;;;3.80;3.70;;;63.70;22.90;;;;;;5013961;28;20415;-74
2022/05/16 10:33:43;;;;;;;3.90;3.80;;;64.40;22.70;;;;;;5014207;28;20922;-74
2022/05/16 10:36:25;;;;;;;3.70;3.60;;;63.70;22.20;;;;;;5013836;28;20415;-74
2022/05/16 10:39:00;;;;;;;3.40;3.30;;;62.60;22.20;;;;;;5013916;28;20837;-74
2022/05/16 10:41:52;;;;;;;3.20;3.10;;;61.20;21.60;;;;;;5012132;28;20465;-73
2022/05/16 10:44:23;;;;;;;2.60;2.50;;;59.40;21.50;;;;;;5013813;28;20429;-73
2022/05/16 10:47:14;;;;;;;2.53;2.43;;;57.90;22.00;;;;;;5013602;28;20764;-73
2022/05/16 10:50:04;;;;;;;2.00;1.90;;;57.30;22.60;;;;;;5005057;28;20478;-73
2022/05/16 10:52:32;;;;;;;1.90;1.80;;;56.80;22.70;;;;;;5012751;28;20477;-73
2022/05/16 10:54:58;;;;;;;1.60;1.50;;;55.40;22.80;;;;;;5013389;28;20410;-73
2022/05/16 10:58:00;;;;;;;1.90;1.80;;;54.00;23.10;;;;;;5013290;28;20407;-73
2022/05/16 11:00:57;;;;;;;1.70;1.60;;;52.90;23.70;;;;;;5013421;28;20195;-73
2022/05/16 11:03:34;;;;;;;1.50;1.40;;;54.10;24.30;;;;;;5012869;28;20457;-73
2022/05/16 11:06:24;;;;;;;1.50;1.40;;;55.30;24.10;;;;;;5013376;28;20388;-73
2022/05/16 11:08:55;;;;;;;1.60;1.50;;;55.00;23.60;;;;;;5013266;28;20508;-73
2022/05/16 11:11:35;;;;;;;1.80;1.70;;;53.60;23.50;;;;;;5011785;28;20769;-72
2022/05/16 11:14:31;;;;;;;1.53;1.43;;;52.00;23.90;;;;;;5013173;28;20392;-72
2022/05/16 11:17:07;;;;;;;1.70;1.60;;;50.10;24.30;;;;;;5013073;28;20780;-72
2022/05/16 11:20:18;;;;;;;1.20;1.10;;;48.20;26.40;;;;;;5013065;28;20405;-72
2022/05/16 11:22:53;;;;;;;1.23;1.13;;;46.30;27.90;;;;;;5012904;28;20407;-72
2022/05/16 11:25:40;;;;;;;1.60;1.50;;;44.80;29.30;;;;;;5013027;28;20369;-72
2022/05/16 11:28:15;;;;;;;1.10;1.00;;;44.00;30.80;;;;;;5012750;28;20378;-72
2022/05/16 11:30:46;;;;;;;1.10;1.00;;;43.40;31.50;;;;;;5012788;28;20399;-72
2022/05/16 11:33:14;;;;;;;1.37;1.17;;;42.90;32.20;;;;;;5012455;28;20406;-72
2022/05/16 11:35:44;;;;;;;1.40;1.30;;;42.20;32.90;;;;;;5012788;28;20414;-72
2022/05/16 11:39:09;;;;;;;1.00;0.90;;;41.30;33.50;;;;;;5012686;28;20789;-71
2022/05/16 11:42:00;;;;;;;1.00;0.80;;;40.20;34.50;;;;;;4941333;28;20454;-71
2022/05/16 11:44:30;;;;;;;1.00;0.90;;;39.00;35.40;;;;;;4952245;29;20951;-71
2022/05/16 11:47:14;;;;;;;1.10;0.80;;;38.10;36.30;;;;;;5001140;28;20435;-71
2022/05/16 11:49:58;;;;;;;1.00;0.90;;;37.20;37.30;;;;;;5011210;28;20549;-71
2022/05/16 11:52:58;;;;;;;1.47;0.87;;;36.20;38.30;;;;;;5012345;28;20415;-71
2022/05/16 12:01:25;;;;;;;0.90;0.80;;;33.80;41.60;;;;;;5012486;28;20434;-71
2022/05/16 12:04:15;;;;;;;0.90;0.80;;;33.10;42.70;;;;;;5011824;28;20911;-71
2022/05/16 12:06:43;;;;;;;0.90;0.80;;;32.60;43.90;;;;;;5012290;28;20399;-71
2022/05/16 12:09:19;;;;;;;0.90;0.70;;;32.20;44.90;;;;;;5010699;28;20435;-71
2022/05/16 12:11:59;;;;;;;1.00;0.77;;;31.90;45.90;;;;;;5011894;28;20453;-71
2022/05/16 12:14:34;;;;;;;0.90;0.70;;;31.60;46.80;;;;;;5012234;28;20808;-71
2022/05/16 12:17:16;;;;;;;0.90;0.70;;;31.30;47.60;;;;;;5012158;28;20437;-71
2022/05/16 12:19:53;;;;;;;0.90;0.70;;;31.00;48.40;;;;;;5012126;28;20799;-71
2022/05/16 12:22:46;;;;;;;2.50;0.90;;;30.70;49.20;;;;;;5011979;28;20403;-71
2022/05/16 12:25:29;;;;;;;1.40;0.90;;;30.20;51.80;;;;;;5010753;28;20827;-71
2022/05/16 12:28:13;;;;;;;1.30;1.17;;;29.70;54.40;;;;;;5012157;28;20411;-71
2022/05/16 12:30:44;;;;;;;0.93;0.80;;;29.00;56.30;;;;;;5011565;28;20466;-70
2022/05/16 12:33:23;;;;;;;1.27;0.80;;;28.50;58.40;;;;;;5012077;28;20780;-70
2022/05/16 12:35:49;;;;;;;1.20;0.77;;;28.00;61.90;;;;;;5012166;28;20410;-71
2022/05/16 12:38:16;;;;;;;1.00;0.90;;;27.50;67.10;;;;;;5011905;28;21003;-71
2022/05/16 12:41:03;;;;;;;1.43;1.30;;;27.20;73.70;;;;;;5010908;28;20533;-70
2022/05/16 12:43:39;;;;;;;1.27;1.17;;;26.90;89.40;;;;;;5011920;28;20403;-70
2022/05/16 12:46:40;;;;;;;2.03;1.70;;;26.60;99.30;;;;;;5011979;28;20426;-71
2022/05/16 12:49:27;;;;;;;3.77;1.70;;;26.30;99.90;;;;;;5010640;28;20435;-70
2022/05/16 12:52:01;;;;;;;2.53;1.93;;;26.00;99.90;;;;;;5011558;28;20454;-70
2022/05/16 12:55:03;;;;;;;1.97;1.70;;;25.80;99.90;;;;;;5012110;28;20407;-71
2022/05/16 12:58:03;;;;;;;1.60;1.50;;;25.50;99.90;;;;;;5011842;28;20409;-71
2022/05/16 13:00:36;;;;;;;1.10;1.00;;;25.20;99.90;;;;;;5011916;28;20962;-71
2022/05/16 13:03:22;;;;;;;1.60;1.43;;;25.10;99.90;;;;;;5011588;28;20805;-70
2022/05/16 13:06:04;;;;;;;1.37;1.27;;;25.00;99.90;;;;;;4981370;28;20815;-70
2022/05/16 13:09:10;;;;;;;1.50;1.20;;;24.90;99.90;;;;;;5011787;28;20768;-71
2022/05/16 13:12:10;;;;;;;1.70;1.60;;;24.90;99.90;;;;;;4980925;28;20494;-71
2022/05/16 13:14:47;;;;;;;6.13;2.10;;;25.00;99.90;;;;;;5011722;28;20486;-73
2022/05/16 13:17:28;;;;;;;1.63;1.40;;;25.00;99.90;;;;;;5011672;28;20402;-73
2022/05/16 13:19:55;;;;;;;4.10;2.17;;;25.10;99.90;;;;;;5011555;28;20431;-71
2022/05/16 13:22:23;;;;;;;1.47;1.33;;;25.20;99.90;;;;;;5014151;28;20494;-71
2022/05/16 13:24:56;;;;;;;1.93;1.80;;;25.30;99.90;;;;;;5015167;28;20490;-71
2022/05/16 13:30:21;;;;;;;2.90;2.70;;;25.90;99.90;;;;;;5015175;28;20445;-71
2022/05/16 13:32:48;;;;;;;1.50;1.40;;;26.50;99.90;;;;;;5015039;28;20407;-71
2022/05/16 13:35:28;;;;;;;1.77;1.60;;;27.10;99.90;;;;;;5014905;28;20407;-71
2022/05/16 13:37:56;;;;;;;2.20;2.07;;;27.60;99.90;;;;;;5014855;28;20436;-71
2022/05/16 13:40:33;;;;;;;1.90;1.70;;;28.10;99.90;;;;;;5013566;28;20467;-71
2022/05/16 13:42:59;;;;;;;1.50;1.40;;;28.50;99.90;;;;;;5014526;28;20395;-71